createdAt,value
2018-06-22T00:00:21.679Z,2.25
2018-06-22T00:02:52.128Z,2.72
2018-06-22T00:05:23.278Z,2.47
2018-06-22T00:07:53.157Z,2.37
2018-06-22T00:10:22.782Z,2.50
2018-06-22T00:12:53.506Z,3.00
2018-06-22T00:15:23.585Z,2.58
2018-06-22T00:17:53.103Z,3.10
2018-06-22T00:20:22.771Z,3.08
2018-06-22T00:22:54.877Z,2.90
2018-06-22T00:25:24.648Z,2.90
2018-06-22T00:27:54.267Z,2.60
2018-06-22T00:30:23.710Z,2.58
2018-06-22T00:32:53.293Z,2.83
2018-06-22T00:35:22.854Z,2.70
2018-06-22T00:37:52.461Z,2.62
2018-06-22T00:40:21.969Z,2.67
2018-06-22T00:42:51.398Z,2.90
2018-06-22T00:45:21.059Z,2.80
2018-06-22T00:47:50.527Z,2.80
2018-06-22T00:50:20.090Z,3.10
2018-06-22T00:52:49.947Z,2.80
2018-06-22T00:55:19.490Z,2.75
2018-06-22T00:57:50.516Z,2.90
2018-06-22T01:00:19.927Z,2.42
2018-06-22T01:02:49.402Z,2.47
2018-06-22T01:05:18.884Z,2.95
2018-06-22T01:07:48.646Z,2.70
2018-06-22T01:10:18.849Z,2.67
2018-06-22T01:12:48.700Z,2.70
2018-06-22T01:15:18.401Z,2.70
2018-06-22T01:17:47.936Z,2.90
2018-06-22T01:20:17.274Z,3.00
2018-06-22T01:22:46.933Z,3.00
2018-06-22T01:25:17.241Z,2.87
2018-06-22T01:27:46.839Z,2.40
2018-06-22T01:30:17.084Z,2.70
2018-06-22T01:32:47.232Z,3.50
2018-06-22T01:35:16.739Z,3.70
2018-06-22T01:37:46.325Z,3.08
2018-06-22T01:40:16.532Z,2.67
2018-06-22T01:42:47.808Z,2.78
2018-06-22T01:45:17.519Z,2.58
2018-06-22T01:47:47.091Z,2.80
2018-06-22T01:50:16.960Z,2.60
2018-06-22T01:52:46.638Z,2.85
2018-06-22T01:55:16.103Z,2.55
2018-06-22T01:57:45.740Z,2.55
2018-06-22T02:00:15.306Z,2.50
2018-06-22T02:02:46.149Z,2.72
2018-06-22T02:05:15.695Z,2.50
2018-06-22T02:07:46.338Z,2.50
2018-06-22T02:10:15.717Z,2.83
2018-06-22T02:12:47.381Z,2.80
2018-06-22T02:15:16.926Z,2.53
2018-06-22T02:17:47.427Z,2.67
2018-06-22T02:20:19.025Z,2.25
2018-06-22T02:22:48.892Z,2.62
2018-06-22T02:25:18.594Z,2.50
2018-06-22T02:27:49.734Z,2.62
2018-06-22T02:30:20.411Z,2.67
2018-06-22T02:32:50.113Z,2.33
2018-06-22T02:35:19.772Z,2.55
2018-06-22T02:37:50.920Z,2.45
2018-06-22T02:40:21.208Z,2.37
2018-06-22T02:42:50.880Z,2.55
2018-06-22T02:45:20.997Z,2.53
2018-06-22T02:47:50.820Z,2.60
2018-06-22T02:50:20.979Z,2.35
2018-06-22T02:52:50.349Z,2.60
2018-06-22T02:55:19.810Z,2.28
2018-06-22T02:57:49.389Z,2.33
2018-06-22T03:00:19.842Z,4.28
2018-06-22T03:02:50.420Z,2.50
2018-06-22T03:05:19.657Z,2.28
2018-06-22T03:07:49.178Z,2.80
2018-06-22T03:10:18.815Z,2.65
2018-06-22T03:12:48.379Z,2.62
2018-06-22T03:15:17.973Z,2.80
2018-06-22T03:17:47.747Z,2.50
2018-06-22T03:20:18.230Z,2.42
2018-06-22T03:22:49.919Z,2.53
2018-06-22T03:25:20.169Z,2.60
2018-06-22T03:27:49.697Z,2.80
2018-06-22T03:30:19.342Z,2.65
2018-06-22T03:32:49.311Z,2.90
2018-06-22T03:35:18.808Z,2.75
2018-06-22T03:37:48.596Z,2.75
2018-06-22T03:40:19.089Z,2.62
2018-06-22T03:42:50.509Z,3.10
2018-06-22T03:45:20.962Z,2.72
2018-06-22T03:47:51.710Z,2.62
2018-06-22T03:50:21.075Z,2.55
2018-06-22T03:52:50.814Z,2.65
2018-06-22T03:55:21.681Z,3.53
2018-06-22T03:57:51.173Z,2.95
2018-06-22T04:00:21.470Z,2.90
2018-06-22T04:02:51.078Z,2.45
2018-06-22T04:05:22.231Z,2.78
2018-06-22T04:07:52.973Z,2.80
2018-06-22T04:10:22.541Z,2.80
2018-06-22T04:12:52.613Z,4.22
2018-06-22T04:15:22.119Z,3.17
2018-06-22T04:17:51.675Z,3.28
2018-06-22T04:20:21.396Z,2.78
2018-06-22T04:22:51.479Z,2.70
2018-06-22T04:25:21.215Z,2.70
2018-06-22T04:27:51.871Z,2.55
2018-06-22T04:30:21.321Z,2.70
2018-06-22T04:32:50.938Z,2.83
2018-06-22T04:35:21.175Z,2.40
2018-06-22T04:37:52.852Z,2.80
2018-06-22T04:40:22.655Z,2.83
2018-06-22T04:42:51.995Z,2.45
2018-06-22T04:45:22.017Z,2.70
2018-06-22T04:47:51.752Z,2.60
2018-06-22T04:50:24.006Z,3.03
2018-06-22T04:52:53.904Z,2.70
2018-06-22T04:55:23.856Z,3.58
2018-06-22T04:57:53.989Z,3.58
2018-06-22T05:00:23.584Z,2.90
2018-06-22T05:02:53.178Z,2.40
2018-06-22T05:05:22.983Z,2.83
2018-06-22T05:07:53.351Z,2.80
2018-06-22T05:10:23.073Z,3.00
2018-06-22T05:12:53.808Z,2.72
2018-06-22T05:15:23.440Z,2.97
2018-06-22T05:17:53.036Z,2.75
2018-06-22T05:20:22.465Z,2.80
2018-06-22T05:22:51.977Z,2.90
2018-06-22T05:25:21.440Z,2.70
2018-06-22T05:27:52.751Z,2.85
2018-06-22T05:30:22.817Z,2.90
2018-06-22T05:32:53.290Z,2.53
2018-06-22T05:35:23.550Z,2.60
2018-06-22T05:37:53.891Z,2.83
2018-06-22T05:40:23.784Z,2.97
2018-06-22T05:42:53.761Z,3.00
2018-06-22T05:45:24.750Z,2.90
2018-06-22T05:47:54.106Z,2.97
2018-06-22T05:50:23.777Z,2.80
2018-06-22T05:52:53.749Z,3.20
2018-06-22T05:55:23.296Z,3.37
2018-06-22T05:57:52.973Z,2.87
2018-06-22T06:00:22.655Z,3.00
2018-06-22T06:02:52.479Z,3.20
2018-06-22T06:05:22.024Z,3.23
2018-06-22T06:07:51.987Z,3.03
2018-06-22T06:10:22.660Z,3.73
2018-06-22T06:12:52.274Z,3.10
2018-06-22T06:15:21.907Z,2.60
2018-06-22T06:17:51.856Z,2.87
2018-06-22T06:20:20.912Z,2.83
2018-06-22T06:22:50.482Z,3.03
2018-06-22T06:25:19.940Z,2.63
2018-06-22T06:27:49.685Z,3.10
2018-06-22T06:30:20.061Z,2.90
2018-06-22T06:32:49.457Z,2.53
2018-06-22T06:35:19.265Z,2.80
2018-06-22T06:37:49.763Z,2.92
2018-06-22T06:40:19.363Z,2.70
2018-06-22T06:42:49.113Z,2.70
2018-06-22T06:45:18.402Z,2.70
2018-06-22T06:47:48.615Z,2.40
2018-06-22T06:50:19.069Z,2.80
2018-06-22T06:52:51.153Z,2.77
2018-06-22T06:55:20.826Z,2.63
2018-06-22T06:57:49.837Z,2.70
2018-06-22T07:00:19.745Z,2.77
2018-06-22T07:02:50.976Z,2.40
2018-06-22T07:05:20.394Z,2.50
2018-06-22T07:07:50.840Z,2.77
2018-06-22T07:10:21.263Z,2.53
2018-06-22T07:12:50.942Z,2.70
2018-06-22T07:15:20.572Z,2.57
2018-06-22T07:17:50.244Z,2.57
2018-06-22T07:20:20.787Z,2.63
2018-06-22T07:22:50.457Z,2.90
2018-06-22T07:25:21.494Z,2.70
2018-06-22T07:27:51.106Z,2.63
2018-06-22T07:30:20.600Z,2.80
2018-06-22T07:32:51.401Z,2.77
2018-06-22T07:35:21.168Z,3.00
2018-06-22T07:37:51.357Z,3.30
2018-06-22T07:40:21.929Z,2.80
2018-06-22T07:42:51.548Z,3.20
2018-06-22T07:45:21.466Z,2.87
2018-06-22T07:47:50.934Z,3.30
2018-06-22T07:50:21.356Z,3.60
2018-06-22T07:52:51.027Z,3.60
2018-06-22T07:55:20.395Z,3.33
2018-06-22T07:57:50.515Z,3.23
2018-06-22T08:00:19.966Z,3.10
2018-06-22T08:02:51.866Z,3.53
2018-06-22T08:05:42.794Z,3.43
2018-06-22T08:08:13.513Z,3.47
2018-06-22T08:10:48.494Z,3.27
2018-06-22T08:13:18.155Z,3.37
2018-06-22T08:15:47.250Z,2.90
2018-06-22T08:18:16.519Z,3.10
2018-06-22T08:20:46.912Z,2.77
2018-06-22T08:23:16.487Z,3.03
2018-06-22T08:25:46.127Z,2.80
2018-06-22T08:28:15.674Z,3.20
2018-06-22T08:30:47.413Z,3.13
2018-06-22T08:33:16.857Z,2.80
2018-06-22T08:35:46.395Z,3.23
2018-06-22T08:38:15.974Z,2.90
2018-06-22T08:40:45.991Z,2.80
2018-06-22T08:43:15.398Z,2.80
2018-06-22T08:45:47.334Z,3.20
2018-06-22T08:48:17.390Z,3.00
2018-06-22T08:50:46.847Z,2.83
2018-06-22T08:53:16.464Z,2.83
2018-06-22T08:55:46.020Z,2.50
2018-06-22T08:58:15.987Z,2.63
2018-06-22T09:00:45.819Z,2.50
2018-06-22T09:03:17.130Z,2.57
2018-06-22T09:05:47.256Z,2.50
2018-06-22T09:08:17.671Z,2.33
2018-06-22T09:10:47.364Z,2.80
2018-06-22T09:13:16.974Z,2.17
2018-06-22T09:15:46.467Z,2.50
2018-06-22T09:18:15.824Z,2.40
2018-06-22T09:20:45.848Z,2.30
2018-06-22T09:23:15.734Z,2.20
2018-06-22T09:25:45.380Z,2.60
2018-06-22T09:28:14.664Z,2.00
2018-06-22T09:30:44.095Z,2.53
2018-06-22T09:33:13.697Z,2.40
2018-06-22T09:35:43.579Z,2.50
2018-06-22T09:38:13.736Z,2.70
2018-06-22T09:40:45.034Z,2.77
2018-06-22T09:43:16.396Z,2.30
2018-06-22T09:45:45.691Z,2.33
2018-06-22T09:48:15.112Z,2.40
2018-06-22T09:50:44.518Z,2.47
2018-06-22T09:53:14.511Z,2.40
2018-06-22T09:55:43.857Z,2.30
2018-06-22T09:58:15.879Z,2.50
2018-06-22T10:00:46.393Z,2.67
2018-06-22T10:03:16.146Z,2.30
2018-06-22T10:05:46.842Z,2.47
2018-06-22T10:08:18.506Z,2.50
2018-06-22T10:10:48.078Z,2.40
2018-06-22T10:13:17.686Z,2.27
2018-06-22T10:15:47.476Z,2.50
2018-06-22T10:18:17.565Z,2.50
2018-06-22T10:20:47.113Z,2.20
2018-06-22T10:23:16.816Z,2.30
2018-06-22T10:25:47.072Z,2.80
2018-06-22T10:28:17.157Z,2.37
2018-06-22T10:30:46.529Z,2.20
2018-06-22T10:33:15.879Z,2.50
2018-06-22T10:35:46.168Z,2.20
2018-06-22T10:38:15.464Z,2.40
2018-06-22T10:40:45.488Z,2.20
2018-06-22T10:43:15.986Z,2.43
2018-06-22T10:45:45.692Z,2.57
2018-06-22T10:48:15.144Z,2.60
2018-06-22T10:50:44.850Z,2.40
2018-06-22T10:53:14.690Z,2.17
2018-06-22T10:55:44.354Z,2.37
2018-06-22T10:58:14.045Z,2.40
2018-06-22T11:00:43.636Z,2.20
2018-06-22T11:03:12.980Z,2.20
2018-06-22T11:05:42.676Z,2.30
2018-06-22T11:08:12.050Z,2.10
2018-06-22T11:10:41.787Z,2.37
2018-06-22T11:13:11.139Z,2.13
2018-06-22T11:15:42.376Z,2.20
2018-06-22T11:18:11.855Z,2.00
2018-06-22T11:20:41.023Z,2.23
2018-06-22T11:23:10.344Z,2.17
2018-06-22T11:25:40.072Z,2.00
2018-06-22T11:28:10.366Z,2.47
2018-06-22T11:30:39.810Z,2.37
2018-06-22T11:33:09.593Z,2.30
2018-06-22T11:35:39.191Z,2.33
2018-06-22T11:38:08.509Z,2.50
2018-06-22T11:40:37.891Z,2.80
2018-06-22T11:43:08.780Z,2.20
2018-06-22T11:45:39.950Z,2.60
2018-06-22T11:48:09.822Z,2.23
2018-06-22T11:50:40.742Z,2.83
2018-06-22T11:53:10.216Z,2.50
2018-06-22T11:55:40.029Z,2.27
2018-06-22T11:58:09.609Z,2.63
2018-06-22T12:00:38.873Z,2.23
2018-06-22T12:03:08.293Z,2.40
2018-06-22T12:05:37.979Z,2.73
2018-06-22T12:08:07.542Z,2.40
2018-06-22T12:10:38.404Z,2.47
2018-06-22T12:13:09.229Z,2.27
2018-06-22T12:15:38.741Z,2.50
2018-06-22T12:18:08.337Z,2.20
2018-06-22T12:20:38.603Z,2.70
2018-06-22T12:23:09.083Z,2.40
2018-06-22T12:25:38.615Z,2.50
2018-06-22T12:28:08.153Z,2.20
2018-06-22T12:30:37.711Z,2.50
2018-06-22T12:33:07.488Z,2.50
2018-06-22T12:35:37.971Z,2.20
2018-06-22T12:38:07.470Z,2.20
2018-06-22T12:40:37.102Z,2.40
2018-06-22T12:43:07.900Z,2.53
2018-06-22T12:45:37.192Z,2.73
2018-06-22T12:48:06.853Z,2.37
2018-06-22T12:50:36.115Z,2.30
2018-06-22T12:53:06.744Z,2.70
2018-06-22T12:55:37.153Z,2.53
2018-06-22T12:58:08.217Z,2.57
2018-06-22T13:00:37.959Z,2.30
2018-06-22T13:03:08.122Z,2.53
2018-06-22T13:05:37.489Z,2.60
2018-06-22T13:08:06.916Z,2.30
2018-06-22T13:10:37.171Z,2.47
2018-06-22T13:13:06.658Z,2.50
2018-06-22T13:15:36.170Z,2.20
2018-06-22T13:18:05.685Z,2.20
2018-06-22T13:20:36.165Z,2.20
2018-06-22T13:23:06.659Z,2.10
2018-06-22T13:25:36.981Z,2.57
2018-06-22T13:28:06.430Z,2.27
2018-06-22T13:30:36.037Z,2.20
2018-06-22T13:33:06.238Z,2.40
2018-06-22T13:35:35.884Z,2.30
2018-06-22T13:38:05.308Z,2.30
2018-06-22T13:40:34.856Z,2.20
2018-06-22T13:43:04.085Z,2.47
2018-06-22T13:45:33.596Z,2.40
2018-06-22T13:48:03.476Z,2.23
2018-06-22T13:50:34.630Z,2.40
2018-06-22T13:53:04.349Z,2.40
2018-06-22T13:55:33.941Z,2.37
2018-06-22T13:58:03.541Z,2.53
2018-06-22T14:00:33.009Z,2.43
2018-06-22T14:03:02.598Z,2.00
2018-06-22T14:08:33.356Z,2.60
2018-06-22T14:11:03.570Z,2.00
2018-06-22T14:13:34.234Z,2.30
2018-06-22T14:16:03.685Z,2.20
2018-06-22T14:18:32.930Z,2.27
2018-06-22T14:21:02.614Z,2.33
2018-06-22T14:23:33.117Z,2.33
2018-06-22T14:26:02.712Z,2.37
2018-06-22T14:28:32.812Z,2.10
2018-06-22T14:31:02.515Z,2.37
2018-06-22T14:33:40.548Z,2.30
2018-06-22T14:36:10.188Z,2.07
2018-06-22T14:38:39.727Z,2.30
2018-06-22T14:41:09.227Z,2.40
2018-06-22T14:43:38.606Z,2.07
2018-06-22T14:46:07.974Z,2.33
2018-06-22T14:48:37.487Z,2.00
2018-06-22T14:51:06.930Z,2.10
2018-06-22T14:53:36.687Z,2.20
2018-06-22T14:56:11.939Z,2.20
2018-06-22T15:01:45.804Z,2.40
2018-06-22T15:04:30.938Z,2.40
2018-06-22T15:09:56.607Z,2.20
2018-06-22T15:12:28.652Z,1.90
2018-06-22T15:14:58.444Z,2.10
2018-06-22T15:17:29.048Z,2.50
2018-06-22T15:19:58.673Z,2.40
2018-06-22T15:22:28.837Z,1.80
2018-06-22T15:24:58.088Z,2.20
2018-06-22T15:27:28.582Z,2.47
2018-06-22T15:29:58.312Z,2.30
2018-06-22T15:32:27.734Z,2.40
2018-06-22T15:35:02.883Z,2.10
2018-06-22T15:40:49.008Z,2.20
2018-06-22T15:46:14.445Z,1.83
2018-06-22T15:48:59.390Z,1.83
2018-06-22T15:51:45.909Z,1.83
2018-06-22T15:54:34.539Z,2.10
2018-06-22T15:57:04.591Z,1.90
2018-06-22T15:59:36.894Z,2.17
2018-06-22T16:02:07.922Z,1.80
2018-06-22T16:04:38.140Z,2.10
2018-06-22T16:07:08.433Z,1.97
2018-06-22T16:09:38.055Z,2.13
2018-06-22T16:12:07.857Z,1.93
2018-06-22T16:14:37.724Z,1.80
2018-06-22T16:20:26.221Z,2.10
2018-06-22T16:26:07.741Z,2.30
2018-06-22T16:28:37.333Z,2.27
2018-06-22T16:31:07.972Z,2.20
2018-06-22T16:33:37.786Z,2.47
2018-06-22T16:36:07.306Z,1.97
2018-06-22T16:38:36.519Z,2.00
2018-06-22T16:41:06.104Z,1.90
2018-06-22T16:43:35.561Z,2.07
2018-06-22T16:46:05.251Z,2.10
2018-06-22T16:48:34.812Z,1.80
2018-06-22T16:51:04.242Z,2.10
2018-06-22T16:53:33.796Z,2.10
2018-06-22T16:56:03.418Z,2.00
2018-06-22T16:58:33.199Z,2.20
2018-06-22T17:01:02.574Z,2.10
2018-06-22T17:03:33.521Z,1.90
2018-06-22T17:06:03.086Z,2.10
2018-06-22T17:08:40.031Z,1.80
2018-06-22T17:14:18.125Z,2.10
2018-06-22T17:19:47.614Z,1.80
2018-06-22T17:22:18.065Z,1.63
2018-06-22T17:24:48.260Z,2.00
2018-06-22T17:27:18.611Z,1.83
2018-06-22T17:29:49.141Z,1.60
2018-06-22T17:32:19.747Z,2.13
2018-06-22T17:34:49.184Z,1.83
2018-06-22T17:37:18.837Z,1.90
2018-06-22T18:03:10.665Z,1.97
2018-06-22T18:08:25.495Z,3.73
2018-06-22T18:14:02.023Z,2.03
2018-06-22T18:16:40.917Z,1.90
2018-06-22T18:19:16.753Z,1.90
2018-06-22T18:21:49.227Z,1.60
2018-06-22T18:24:18.719Z,1.95
2018-06-22T18:26:49.364Z,2.00
2018-06-22T18:29:18.642Z,2.10
2018-06-22T18:31:48.056Z,2.15
2018-06-22T18:34:17.552Z,2.30
2018-06-22T18:36:46.784Z,2.15
2018-06-22T18:39:16.071Z,2.33
2018-06-22T18:41:46.796Z,2.50
2018-06-22T18:44:16.342Z,2.20
2018-06-22T18:46:45.820Z,1.95
2018-06-22T18:49:15.583Z,2.33
2018-06-22T18:51:45.503Z,2.65
2018-06-22T18:57:25.960Z,2.47
2018-06-22T18:59:55.917Z,2.12
2018-06-22T19:05:24.600Z,2.67
2018-06-22T19:07:54.636Z,2.87
2018-06-22T19:10:24.198Z,3.25
2018-06-22T19:12:54.392Z,3.28
2018-06-22T19:15:23.683Z,3.08
2018-06-22T19:17:53.415Z,3.30
2018-06-22T19:20:22.635Z,3.50
2018-06-22T19:22:53.173Z,3.00
2018-06-22T19:25:23.073Z,3.28
2018-06-22T19:27:52.383Z,3.00
2018-06-22T19:30:22.491Z,3.00
2018-06-22T19:32:52.103Z,2.75
2018-06-22T19:35:21.582Z,2.42
2018-06-22T19:37:51.241Z,2.10
2018-06-22T19:40:20.730Z,2.60
2018-06-22T19:42:51.597Z,2.40
2018-06-22T19:45:26.791Z,2.58
2018-06-22T19:51:09.759Z,2.57
2018-06-22T19:53:45.397Z,2.25
2018-06-22T19:56:15.101Z,2.55
2018-06-22T19:58:44.607Z,2.20
2018-06-22T20:01:14.431Z,2.90
2018-06-22T20:03:44.920Z,2.62
2018-06-22T20:06:14.226Z,2.80
2018-06-22T20:08:43.632Z,2.40
2018-06-22T20:11:13.345Z,2.67
2018-06-22T20:13:42.870Z,2.55
2018-06-22T20:16:13.695Z,2.58
2018-06-22T20:18:44.357Z,2.55
2018-06-22T20:21:13.996Z,2.55
2018-06-22T20:23:43.782Z,2.40
2018-06-22T20:26:13.085Z,2.35
2018-06-22T20:28:42.554Z,2.83
2018-06-22T20:31:12.384Z,2.60
2018-06-22T20:33:43.011Z,2.70
2018-06-22T20:39:26.899Z,2.70
2018-06-22T20:45:14.934Z,2.90
2018-06-22T20:47:44.536Z,2.78
2018-06-22T20:50:30.954Z,2.60
2018-06-22T20:53:01.202Z,2.60
2018-06-22T20:55:31.166Z,2.60
2018-06-22T20:58:01.372Z,2.53
2018-06-22T21:00:30.845Z,2.90
2018-06-22T21:03:00.288Z,2.97
2018-06-22T21:05:29.997Z,2.70
2018-06-22T21:07:59.302Z,2.65
2018-06-22T21:10:28.779Z,3.00
2018-06-22T21:12:58.720Z,3.05
2018-06-22T21:15:28.072Z,2.80
2018-06-22T21:17:57.939Z,2.97
2018-06-22T21:20:28.138Z,2.80
2018-06-22T21:22:57.978Z,3.00
2018-06-22T21:25:26.891Z,3.05
2018-06-22T21:31:12.571Z,3.10
2018-06-22T21:36:57.158Z,2.90
2018-06-22T21:39:27.496Z,2.50
2018-06-22T21:41:58.003Z,2.50
2018-06-22T21:44:27.851Z,2.87
2018-06-22T21:46:57.522Z,2.87
2018-06-22T21:49:26.903Z,2.83
2018-06-22T21:51:56.245Z,2.50
2018-06-22T21:54:25.938Z,3.03
2018-06-22T21:56:55.200Z,2.97
2018-06-22T21:59:24.790Z,2.90
2018-06-22T22:01:54.317Z,2.60
2018-06-22T22:04:24.117Z,2.75
2018-06-22T22:06:53.492Z,2.90
2018-06-22T22:09:23.764Z,2.72
2018-06-22T22:11:54.650Z,2.53
2018-06-22T22:14:24.254Z,3.08
2018-06-22T22:16:53.960Z,2.85
2018-06-22T22:19:23.716Z,2.83
2018-06-22T22:21:53.595Z,2.78
2018-06-22T22:24:23.331Z,2.80
2018-06-22T22:26:52.903Z,2.42
2018-06-22T22:29:22.773Z,2.92
2018-06-22T22:31:52.000Z,2.80
2018-06-22T22:34:21.316Z,2.80
2018-06-22T22:36:51.577Z,2.78
2018-06-22T22:39:21.948Z,3.00
2018-06-22T22:41:52.913Z,2.80
2018-06-22T22:44:22.578Z,3.22
2018-06-22T22:46:53.233Z,2.90
2018-06-22T22:49:23.228Z,3.08
2018-06-22T22:51:52.767Z,2.80
2018-06-22T22:54:22.648Z,2.83
2018-06-22T22:56:52.076Z,3.08
2018-06-22T22:59:21.515Z,3.10
2018-06-22T23:01:52.093Z,3.03
2018-06-22T23:04:21.691Z,2.70
2018-06-22T23:06:51.031Z,2.90
2018-06-22T23:09:20.527Z,2.85
2018-06-22T23:11:50.110Z,2.60
2018-06-22T23:14:19.645Z,2.90
2018-06-22T23:16:49.927Z,2.97
2018-06-22T23:19:19.313Z,2.83
2018-06-22T23:21:48.813Z,2.97
2018-06-22T23:24:18.202Z,3.05
2018-06-22T23:26:47.804Z,3.03
2018-06-22T23:29:18.608Z,3.53
2018-06-22T23:31:49.968Z,3.30
2018-06-22T23:34:21.106Z,4.18
2018-06-22T23:36:51.577Z,3.97
2018-06-22T23:39:20.883Z,3.92
2018-06-22T23:41:50.422Z,3.80
2018-06-22T23:44:19.880Z,4.15
2018-06-22T23:46:49.287Z,3.60
2018-06-22T23:49:18.637Z,4.03
2018-06-22T23:51:49.995Z,4.55
2018-06-22T23:54:20.111Z,4.35
2018-06-22T23:56:50.726Z,4.20
2018-06-22T23:59:20.954Z,4.35
